createdAt,value
2022-09-15T00:02:15.260Z,88.80
2022-09-15T00:04:42.224Z,88.80
2022-09-15T00:07:09.173Z,89.00
2022-09-15T00:09:35.838Z,89.10
2022-09-15T00:12:03.128Z,89.00
2022-09-15T00:14:32.300Z,89.10
2022-09-15T00:16:58.972Z,89.20
2022-09-15T00:19:26.284Z,89.10
2022-09-15T00:21:53.227Z,89.10
2022-09-15T00:24:21.932Z,89.10
2022-09-15T00:26:49.021Z,89.10
2022-09-15T00:29:15.897Z,89.30
2022-09-15T00:31:42.533Z,89.50
2022-09-15T00:34:11.265Z,89.40
2022-09-15T00:36:38.201Z,89.20
2022-09-15T00:39:04.941Z,89.00
2022-09-15T00:41:32.128Z,89.10
2022-09-15T00:44:00.930Z,89.20
2022-09-15T00:46:30.929Z,89.20
2022-09-15T00:49:03.532Z,89.20
2022-09-15T00:51:36.598Z,89.20
2022-09-15T00:54:05.862Z,89.30
2022-09-15T00:56:33.509Z,89.30
2022-09-15T00:59:03.550Z,89.20
2022-09-15T01:01:31.412Z,89.20
2022-09-15T01:04:01.625Z,88.90
2022-09-15T01:06:36.458Z,88.90
2022-09-15T01:09:06.504Z,88.80
2022-09-15T01:11:33.633Z,88.80
2022-09-15T01:14:02.060Z,89.40
2022-09-15T01:16:33.263Z,89.50
2022-09-15T01:19:19.135Z,89.60
2022-09-15T01:21:51.689Z,89.80
2022-09-15T01:24:21.529Z,90.10
2022-09-15T01:27:18.746Z,90.10
2022-09-15T01:30:08.349Z,90.40
2022-09-15T01:33:04.369Z,90.50
2022-09-15T01:35:32.909Z,90.50
2022-09-15T01:38:18.321Z,90.50
2022-09-15T01:40:49.084Z,90.40
2022-09-15T01:43:17.181Z,90.60
2022-09-15T01:45:45.292Z,90.70
2022-09-15T01:48:12.580Z,90.70
2022-09-15T01:50:44.485Z,90.90
2022-09-15T01:53:15.327Z,90.40
2022-09-15T01:55:44.510Z,90.80
2022-09-15T01:58:11.245Z,90.90
2022-09-15T02:00:41.727Z,90.70
2022-09-15T02:03:17.605Z,90.70
2022-09-15T02:05:48.791Z,90.50
2022-09-15T02:08:34.112Z,90.50
2022-09-15T02:11:07.367Z,90.40
2022-09-15T02:13:45.394Z,90.20
2022-09-15T02:16:20.280Z,90.10
2022-09-15T02:18:58.615Z,90.00
2022-09-15T02:21:36.291Z,89.70
2022-09-15T02:24:06.432Z,89.90
2022-09-15T02:26:35.741Z,89.70
2022-09-15T02:29:04.878Z,89.60
2022-09-15T02:31:33.148Z,89.40
2022-09-15T02:34:02.422Z,89.30
2022-09-15T02:36:29.347Z,89.20
2022-09-15T02:39:00.548Z,89.10
2022-09-15T02:41:27.586Z,89.10
2022-09-15T02:43:54.701Z,89.00
2022-09-15T02:46:22.465Z,89.10
2022-09-15T02:48:50.512Z,89.20
2022-09-15T02:51:20.718Z,89.10
2022-09-15T02:53:47.594Z,88.90
2022-09-15T02:56:15.630Z,88.80
2022-09-15T02:58:43.118Z,88.80
2022-09-15T03:01:15.016Z,88.60
2022-09-15T03:03:43.338Z,88.60
2022-09-15T03:06:21.519Z,88.50
2022-09-15T03:08:55.944Z,88.40
2022-09-15T03:11:24.412Z,88.10
2022-09-15T03:13:58.765Z,88.10
2022-09-15T03:16:26.051Z,88.40
2022-09-15T03:18:54.327Z,87.90
2022-09-15T03:21:21.635Z,87.80
2022-09-15T03:23:49.481Z,87.70
2022-09-15T03:26:16.202Z,87.60
2022-09-15T03:28:42.910Z,87.90
2022-09-15T03:31:09.936Z,87.60
2022-09-15T03:33:37.749Z,87.50
2022-09-15T03:36:04.929Z,87.90
2022-09-15T03:38:31.768Z,87.80
2022-09-15T03:41:07.765Z,87.90
2022-09-15T03:43:35.319Z,87.80
2022-09-15T03:46:02.566Z,87.70
2022-09-15T03:48:31.227Z,87.80
2022-09-15T03:50:59.128Z,88.00
2022-09-15T03:53:25.850Z,88.20
2022-09-15T03:55:52.724Z,88.30
2022-09-15T03:58:22.123Z,88.30
2022-09-15T04:00:48.859Z,88.30
2022-09-15T04:03:18.021Z,87.90
2022-09-15T04:05:57.925Z,88.00
2022-09-15T04:08:24.840Z,87.90
2022-09-15T04:10:51.993Z,87.10
2022-09-15T04:13:18.598Z,87.40
2022-09-15T04:15:45.673Z,87.10
2022-09-15T04:18:12.620Z,87.20
2022-09-15T04:20:39.729Z,87.20
2022-09-15T04:23:06.433Z,87.00
2022-09-15T04:25:33.068Z,87.00
2022-09-15T04:27:59.756Z,86.90
2022-09-15T04:30:26.666Z,87.10
2022-09-15T04:32:54.128Z,87.30
2022-09-15T04:35:21.929Z,87.50
2022-09-15T04:37:49.282Z,87.60
2022-09-15T04:40:15.989Z,87.50
2022-09-15T04:42:42.710Z,87.40
2022-09-15T04:45:10.024Z,87.50
2022-09-15T04:47:36.864Z,87.70
2022-09-15T04:50:03.641Z,87.80
2022-09-15T04:52:30.744Z,87.70
2022-09-15T04:54:57.394Z,87.70
2022-09-15T04:57:24.140Z,88.20
2022-09-15T04:59:51.029Z,88.30
2022-09-15T05:02:18.066Z,88.40
2022-09-15T05:04:45.576Z,87.80
2022-09-15T05:07:12.427Z,87.90
2022-09-15T05:09:39.324Z,87.70
2022-09-15T05:12:07.999Z,86.80
2022-09-15T05:14:35.066Z,87.20
2022-09-15T05:17:01.909Z,86.50
2022-09-15T05:19:28.511Z,86.50
2022-09-15T05:21:55.362Z,86.80
2022-09-15T05:24:22.312Z,86.50
2022-09-15T05:26:49.473Z,86.50
2022-09-15T05:29:16.494Z,86.20
2022-09-15T05:31:43.278Z,86.50
2022-09-15T05:34:10.179Z,86.20
2022-09-15T05:36:37.826Z,85.30
2022-09-15T05:39:04.570Z,84.70
2022-09-15T05:41:31.214Z,84.70
2022-09-15T05:43:58.195Z,84.40
2022-09-15T05:46:29.146Z,83.90
2022-09-15T05:49:01.803Z,83.60
2022-09-15T05:51:30.089Z,83.00
2022-09-15T05:53:56.821Z,83.00
2022-09-15T05:56:24.283Z,82.80
2022-09-15T05:58:51.068Z,82.40
2022-09-15T06:01:18.072Z,82.30
2022-09-15T06:03:45.440Z,82.10
2022-09-15T06:06:12.223Z,81.80
2022-09-15T06:08:44.381Z,81.20
2022-09-15T06:11:12.752Z,81.60
2022-09-15T06:13:41.740Z,81.70
2022-09-15T06:16:10.083Z,81.40
2022-09-15T06:18:37.856Z,81.60
2022-09-15T06:21:14.843Z,81.30
2022-09-15T06:24:08.746Z,81.00
2022-09-15T06:26:36.692Z,81.20
2022-09-15T06:29:05.014Z,80.90
2022-09-15T06:31:32.340Z,81.00
2022-09-15T06:33:59.204Z,80.90
2022-09-15T06:36:27.593Z,81.00
2022-09-15T06:39:03.198Z,81.30
2022-09-15T06:41:42.675Z,81.30
2022-09-15T06:44:21.462Z,81.10
2022-09-15T06:46:48.817Z,81.10
2022-09-15T06:49:15.986Z,80.90
2022-09-15T06:51:43.164Z,81.00
2022-09-15T06:54:10.069Z,80.90
2022-09-15T06:56:38.365Z,80.50
2022-09-15T06:59:05.993Z,80.60
2022-09-15T07:01:33.447Z,80.80
2022-09-15T07:04:01.009Z,80.60
2022-09-15T07:06:28.739Z,80.40
2022-09-15T07:08:56.131Z,80.20
2022-09-15T07:11:28.873Z,80.00
2022-09-15T07:13:55.852Z,80.10
2022-09-15T07:16:22.753Z,80.60
2022-09-15T07:18:50.069Z,80.30
2022-09-15T07:21:18.513Z,80.40
2022-09-15T07:23:46.101Z,80.10
2022-09-15T07:26:20.802Z,80.30
2022-09-15T07:28:50.096Z,80.20
2022-09-15T07:31:18.342Z,80.30
2022-09-15T07:33:48.492Z,79.30
2022-09-15T07:36:15.676Z,79.10
2022-09-15T07:38:44.201Z,79.10
2022-09-15T07:41:12.804Z,78.90
2022-09-15T07:43:39.820Z,78.80
2022-09-15T07:46:06.767Z,77.60
2022-09-15T07:48:33.773Z,77.50
2022-09-15T07:51:01.746Z,77.80
2022-09-15T07:53:29.256Z,77.20
2022-09-15T07:55:56.459Z,77.10
2022-09-15T07:58:25.232Z,77.10
2022-09-15T08:01:01.398Z,77.30
2022-09-15T08:03:28.081Z,77.40
2022-09-15T08:06:01.974Z,77.60
2022-09-15T08:08:29.004Z,76.90
2022-09-15T08:10:56.715Z,75.90
2022-09-15T08:13:24.337Z,75.30
2022-09-15T08:15:52.407Z,75.90
2022-09-15T08:18:19.127Z,76.20
2022-09-15T08:20:47.350Z,76.80
2022-09-15T08:23:14.195Z,75.90
2022-09-15T08:25:40.946Z,75.80
2022-09-15T08:28:08.560Z,76.30
2022-09-15T08:30:35.584Z,76.40
2022-09-15T08:33:06.240Z,75.80
2022-09-15T08:35:34.543Z,75.40
2022-09-15T08:38:03.738Z,75.70
2022-09-15T08:40:35.927Z,75.90
2022-09-15T08:43:07.224Z,75.20
2022-09-15T08:45:38.884Z,74.90
2022-09-15T08:48:08.657Z,75.60
2022-09-15T08:50:39.040Z,74.30
2022-09-15T08:53:09.667Z,73.90
2022-09-15T08:55:50.156Z,74.00
2022-09-15T08:58:19.552Z,74.70
2022-09-15T09:00:47.591Z,73.20
2022-09-15T09:03:33.332Z,73.00
2022-09-15T09:06:08.551Z,72.40
2022-09-15T09:09:00.202Z,72.00
2022-09-15T09:11:41.137Z,71.10
2022-09-15T09:14:17.373Z,71.30
2022-09-15T09:16:44.274Z,70.60
2022-09-15T09:19:24.247Z,70.90
2022-09-15T09:21:56.445Z,70.90
2022-09-15T09:24:31.436Z,70.60
2022-09-15T09:27:02.629Z,70.00
2022-09-15T09:29:39.262Z,69.50
2022-09-15T09:32:25.385Z,69.40
2022-09-15T09:35:04.022Z,69.80
2022-09-15T09:37:31.141Z,69.70
2022-09-15T09:39:57.818Z,68.90
2022-09-15T09:42:28.866Z,68.10
2022-09-15T09:44:57.645Z,68.10
2022-09-15T09:47:31.853Z,69.00
2022-09-15T09:50:01.959Z,69.20
2022-09-15T09:52:39.841Z,68.20
2022-09-15T09:55:21.206Z,68.80
2022-09-15T09:58:12.749Z,69.20
2022-09-15T10:00:40.601Z,70.10
2022-09-15T10:03:30.600Z,69.40
2022-09-15T10:06:01.131Z,68.40
2022-09-15T10:08:29.908Z,68.10
2022-09-15T10:11:00.794Z,67.40
2022-09-15T10:13:34.451Z,64.30
2022-09-15T10:16:02.171Z,65.20
2022-09-15T10:18:31.386Z,63.20
2022-09-15T10:21:02.064Z,63.20
2022-09-15T10:23:32.863Z,61.10
2022-09-15T10:26:24.924Z,61.90
2022-09-15T10:29:10.557Z,58.80
2022-09-15T10:31:37.266Z,59.10
2022-09-15T10:34:23.082Z,59.50
2022-09-15T10:36:49.812Z,59.20
2022-09-15T10:39:28.670Z,54.50
2022-09-15T10:42:14.294Z,56.20
2022-09-15T10:45:08.107Z,55.40
2022-09-15T10:47:53.520Z,55.30
2022-09-15T10:50:30.872Z,57.20
2022-09-15T10:53:03.943Z,56.20
2022-09-15T10:55:51.504Z,54.80
2022-09-15T10:58:22.632Z,54.20
2022-09-15T11:00:59.964Z,55.40
2022-09-15T11:03:43.750Z,55.80
2022-09-15T11:06:20.644Z,56.00
2022-09-15T11:08:51.381Z,56.20
2022-09-15T11:11:23.901Z,54.20
2022-09-15T11:13:59.913Z,56.20
2022-09-15T11:16:26.845Z,52.30
2022-09-15T11:18:59.419Z,54.60
2022-09-15T11:21:47.741Z,56.30
2022-09-15T11:24:14.610Z,55.30
2022-09-15T11:26:42.791Z,57.10
2022-09-15T11:29:20.620Z,55.40
2022-09-15T11:31:49.735Z,57.60
2022-09-15T11:34:34.922Z,58.20
2022-09-15T11:37:01.982Z,62.60
2022-09-15T11:39:41.551Z,64.20
2022-09-15T11:42:11.644Z,65.80
2022-09-15T11:44:42.941Z,64.20
2022-09-15T11:47:20.197Z,63.90
2022-09-15T11:49:56.284Z,65.30
2022-09-15T11:52:41.757Z,62.40
2022-09-15T11:55:27.277Z,57.70
2022-09-15T11:58:16.366Z,57.70
2022-09-15T12:00:55.976Z,59.70
2022-09-15T12:03:34.329Z,59.90
2022-09-15T12:06:07.059Z,59.70
2022-09-15T12:08:37.648Z,60.20
2022-09-15T12:11:09.050Z,59.00
2022-09-15T12:13:36.758Z,60.60
2022-09-15T12:16:03.970Z,61.90
2022-09-15T12:18:43.735Z,61.20
2022-09-15T12:21:16.082Z,59.50
2022-09-15T12:23:51.040Z,59.90
2022-09-15T12:26:19.188Z,63.00
2022-09-15T12:28:54.553Z,62.30
2022-09-15T12:31:27.078Z,61.20
2022-09-15T12:33:54.710Z,59.70
2022-09-15T12:36:31.044Z,59.80
2022-09-15T12:38:58.755Z,61.80
2022-09-15T12:41:25.850Z,63.70
2022-09-15T12:43:56.836Z,65.40
2022-09-15T12:46:24.607Z,67.50
2022-09-15T12:48:51.722Z,68.50
2022-09-15T12:51:23.167Z,69.50
2022-09-15T12:53:53.033Z,69.70
2022-09-15T12:56:26.385Z,70.90
2022-09-15T12:58:53.539Z,70.40
2022-09-15T13:01:23.420Z,71.20
2022-09-15T13:03:50.129Z,71.10
2022-09-15T13:06:21.523Z,71.40
2022-09-15T13:08:51.561Z,71.60
2022-09-15T13:11:23.621Z,69.90
2022-09-15T13:14:08.370Z,70.80
2022-09-15T13:16:44.382Z,69.30
2022-09-15T13:19:12.509Z,69.70
2022-09-15T13:21:41.561Z,70.40
2022-09-15T13:24:14.493Z,69.50
2022-09-15T13:26:42.171Z,69.40
2022-09-15T13:29:13.106Z,70.70
2022-09-15T13:31:45.694Z,70.00
2022-09-15T13:40:27.481Z,70.50
2022-09-15T13:42:58.303Z,71.50
2022-09-15T13:45:43.450Z,73.20
2022-09-15T13:48:19.563Z,72.70
2022-09-15T13:50:55.956Z,73.70
2022-09-15T13:53:38.060Z,76.10
2022-09-15T13:56:09.738Z,75.60
2022-09-15T14:01:25.471Z,80.30
2022-09-15T14:03:55.026Z,79.30
2022-09-15T14:06:48.261Z,77.60
2022-09-15T14:09:19.731Z,74.30
2022-09-15T14:11:51.820Z,73.90
2022-09-15T14:14:27.836Z,73.30
2022-09-15T14:16:55.715Z,70.00
2022-09-15T14:19:39.132Z,70.90
2022-09-15T14:22:18.196Z,70.50
2022-09-15T14:24:45.029Z,71.90
2022-09-15T14:27:19.581Z,72.90
2022-09-15T14:29:50.375Z,70.10
2022-09-15T14:32:17.658Z,71.30
2022-09-15T14:34:45.205Z,71.70
2022-09-15T14:37:28.353Z,70.50
2022-09-15T14:39:57.037Z,71.30
2022-09-15T14:42:29.522Z,73.30
2022-09-15T14:47:44.646Z,75.50
2022-09-15T14:50:13.811Z,76.50
2022-09-15T14:52:42.625Z,76.30
2022-09-15T14:55:19.244Z,77.30
2022-09-15T14:57:50.383Z,78.10
2022-09-15T15:00:19.508Z,78.60
2022-09-15T15:02:49.401Z,79.00
2022-09-15T15:05:42.508Z,78.90
2022-09-15T15:08:12.961Z,79.90
2022-09-15T15:10:39.976Z,81.50
2022-09-15T15:13:12.825Z,79.80
2022-09-15T15:15:40.974Z,80.30
2022-09-15T15:18:31.823Z,81.00
2022-09-15T15:21:03.615Z,78.80
2022-09-15T15:27:33.191Z,79.30
2022-09-15T15:30:19.622Z,79.20
2022-09-15T15:32:46.457Z,80.10
2022-09-15T15:35:14.532Z,81.40
2022-09-15T15:37:42.732Z,80.30
2022-09-15T15:40:20.600Z,80.60
2022-09-15T15:43:00.934Z,81.00
2022-09-15T15:45:30.644Z,81.20
2022-09-15T15:47:58.372Z,81.40
2022-09-15T15:50:28.734Z,82.00
2022-09-15T15:52:55.829Z,82.40
2022-09-15T15:55:23.827Z,83.70
2022-09-15T15:57:52.749Z,83.40
2022-09-15T16:00:32.647Z,83.70
2022-09-15T16:02:59.335Z,84.30
2022-09-15T16:05:26.704Z,83.20
2022-09-15T16:07:55.049Z,84.50
2022-09-15T16:10:24.042Z,84.80
2022-09-15T16:12:50.659Z,84.30
2022-09-15T16:15:18.886Z,85.10
2022-09-15T16:17:47.269Z,84.60
2022-09-15T16:20:15.916Z,83.80
2022-09-15T16:22:48.988Z,83.20
2022-09-15T16:25:23.001Z,83.60
2022-09-15T16:27:49.738Z,82.90
2022-09-15T16:30:16.707Z,83.80
2022-09-15T16:32:43.356Z,83.40
2022-09-15T16:35:16.462Z,83.10
2022-09-15T16:37:43.317Z,83.90
2022-09-15T16:40:10.224Z,83.80
2022-09-15T16:42:37.118Z,83.70
2022-09-15T16:45:14.489Z,84.60
2022-09-15T16:47:41.137Z,84.70
2022-09-15T16:50:09.075Z,84.80
2022-09-15T16:52:35.730Z,85.40
2022-09-15T16:55:25.290Z,85.30
2022-09-15T16:57:51.966Z,85.10
2022-09-15T17:00:18.801Z,85.20
2022-09-15T17:02:45.638Z,85.40
2022-09-15T17:05:15.267Z,85.80
2022-09-15T17:07:43.289Z,85.60
2022-09-15T17:10:09.977Z,86.30
2022-09-15T17:12:37.310Z,86.00
2022-09-15T17:15:12.149Z,85.70
2022-09-15T17:17:38.800Z,85.50
2022-09-15T17:20:06.590Z,85.60
2022-09-15T17:22:33.427Z,84.40
2022-09-15T17:25:00.700Z,84.60
2022-09-15T17:27:33.463Z,85.00
2022-09-15T17:30:00.149Z,85.00
2022-09-15T17:32:26.754Z,85.20
2022-09-15T17:34:53.342Z,84.90
2022-09-15T17:37:20.031Z,85.00
2022-09-15T17:39:50.229Z,83.50
2022-09-15T17:42:17.247Z,83.70
2022-09-15T17:44:45.203Z,83.60
2022-09-15T17:47:11.970Z,83.30
2022-09-15T17:49:38.951Z,83.90
2022-09-15T17:52:05.857Z,83.90
2022-09-15T17:54:33.725Z,83.30
2022-09-15T17:57:00.464Z,83.90
2022-09-15T17:59:28.366Z,84.50
2022-09-15T18:01:56.207Z,83.60
2022-09-15T18:04:22.906Z,84.30
2022-09-15T18:06:50.140Z,83.70
2022-09-15T18:09:17.837Z,84.20
2022-09-15T18:11:44.551Z,84.70
2022-09-15T18:14:11.759Z,84.80
2022-09-15T18:16:38.626Z,85.60
2022-09-15T18:19:05.326Z,84.40
2022-09-15T18:21:32.385Z,84.20
2022-09-15T18:23:59.293Z,84.10
2022-09-15T18:26:26.765Z,84.40
2022-09-15T18:28:54.809Z,84.20
2022-09-15T18:31:22.398Z,84.30
2022-09-15T18:33:49.042Z,83.70
2022-09-15T18:36:15.987Z,84.00
2022-09-15T18:38:42.976Z,84.50
2022-09-15T18:41:10.516Z,84.70
2022-09-15T18:43:37.188Z,84.70
2022-09-15T18:46:04.862Z,85.10
2022-09-15T18:48:31.582Z,85.40
2022-09-15T18:50:58.962Z,85.90
2022-09-15T18:53:26.014Z,85.90
2022-09-15T18:55:52.773Z,85.90
2022-09-15T18:58:19.857Z,85.80
2022-09-15T19:00:46.878Z,85.60
2022-09-15T19:03:14.389Z,85.80
2022-09-15T19:05:41.867Z,85.30
2022-09-15T19:08:09.476Z,85.80
2022-09-15T19:10:38.224Z,86.30
2022-09-15T19:13:05.183Z,86.40
2022-09-15T19:15:34.709Z,85.60
2022-09-15T19:18:01.985Z,85.90
2022-09-15T19:20:29.370Z,86.80
2022-09-15T19:22:56.817Z,86.40
2022-09-15T19:25:23.627Z,86.80
2022-09-15T19:27:50.333Z,86.60
2022-09-15T19:30:17.254Z,86.70
2022-09-15T19:32:43.863Z,87.00
2022-09-15T19:35:11.512Z,87.10
2022-09-15T19:37:39.301Z,86.80
2022-09-15T19:40:08.950Z,86.30
2022-09-15T19:42:36.653Z,86.70
2022-09-15T19:45:03.689Z,86.70
2022-09-15T19:47:30.312Z,86.60
2022-09-15T19:49:57.209Z,86.90
2022-09-15T19:56:26.461Z,87.00
2022-09-15T19:58:54.929Z,86.60
2022-09-15T20:01:22.220Z,87.10
2022-09-15T20:03:49.469Z,87.50
2022-09-15T20:06:17.021Z,87.30
2022-09-15T20:08:45.802Z,87.50
2022-09-15T20:11:13.150Z,87.40
2022-09-15T20:13:43.549Z,87.80
2022-09-15T20:16:17.899Z,87.40
2022-09-15T20:18:47.902Z,87.30
2022-09-15T20:21:26.773Z,87.50
2022-09-15T20:24:00.102Z,87.50
2022-09-15T20:26:27.385Z,87.50
2022-09-15T20:28:54.296Z,87.70
2022-09-15T20:31:23.271Z,88.00
2022-09-15T20:33:51.081Z,88.10
2022-09-15T20:36:19.060Z,88.30
2022-09-15T20:38:46.635Z,88.50
2022-09-15T20:41:14.336Z,88.60
2022-09-15T20:43:42.344Z,88.40
2022-09-15T20:46:11.917Z,88.10
2022-09-15T20:48:39.408Z,88.10
2022-09-15T20:51:15.426Z,87.80
2022-09-15T20:53:45.725Z,87.90
2022-09-15T20:56:12.852Z,88.00
2022-09-15T20:59:01.264Z,88.10
2022-09-15T21:02:00.541Z,88.10
2022-09-15T21:04:56.083Z,87.90
2022-09-15T21:07:22.933Z,88.20
2022-09-15T21:10:34.337Z,88.40
2022-09-15T21:13:01.450Z,88.40
2022-09-15T21:19:28.842Z,88.90
2022-09-15T21:21:55.949Z,89.10
2022-09-15T21:24:22.844Z,89.30
2022-09-15T21:27:08.301Z,89.30
2022-09-15T21:29:34.911Z,89.40
2022-09-15T21:32:02.154Z,89.50
2022-09-15T21:34:29.136Z,89.70
2022-09-15T21:36:56.293Z,89.50
2022-09-15T21:39:23.109Z,89.60
2022-09-15T21:41:50.205Z,89.30
2022-09-15T21:44:21.629Z,89.10
2022-09-15T21:46:48.385Z,89.10
2022-09-15T21:49:17.413Z,88.90
2022-09-15T21:51:51.013Z,89.00
2022-09-15T21:54:17.827Z,88.80
2022-09-15T21:56:46.698Z,88.60
2022-09-15T21:59:13.333Z,88.50
2022-09-15T22:01:40.425Z,88.50
2022-09-15T22:04:08.790Z,88.40
2022-09-15T22:06:41.224Z,88.50
2022-09-15T22:09:10.111Z,88.60
2022-09-15T22:11:37.025Z,88.50
2022-09-15T22:14:08.263Z,88.60
2022-09-15T22:16:36.161Z,89.00
2022-09-15T22:19:02.875Z,89.20
2022-09-15T22:21:36.940Z,89.30
2022-09-15T22:24:05.133Z,89.40
2022-09-15T22:27:11.827Z,89.90
2022-09-15T22:29:38.712Z,90.00
2022-09-15T22:32:05.343Z,90.10
2022-09-15T22:34:32.400Z,90.30
2022-09-15T22:37:01.043Z,90.40
2022-09-15T22:39:50.171Z,90.30
2022-09-15T22:42:14.773Z,90.40
2022-09-15T22:44:47.884Z,90.50
2022-09-15T22:47:14.757Z,90.50
2022-09-15T22:49:58.117Z,90.60
2022-09-15T22:52:24.965Z,90.70
2022-09-15T22:54:51.834Z,90.80
2022-09-15T22:57:23.523Z,90.90
2022-09-15T22:59:50.603Z,90.70
2022-09-15T23:02:17.526Z,90.60
2022-09-15T23:04:46.524Z,90.60
2022-09-15T23:07:14.810Z,90.50
2022-09-15T23:09:41.668Z,90.50
2022-09-15T23:12:09.749Z,90.30
2022-09-15T23:14:37.197Z,90.30
2022-09-15T23:17:04.029Z,90.20
2022-09-15T23:19:30.686Z,90.20
2022-09-15T23:21:57.524Z,90.40
2022-09-15T23:24:24.393Z,90.30
2022-09-15T23:26:51.060Z,90.50
2022-09-15T23:29:18.868Z,90.40
2022-09-15T23:31:46.004Z,90.50
2022-09-15T23:34:12.684Z,90.60
2022-09-15T23:36:39.823Z,90.70
2022-09-15T23:39:06.937Z,90.70
2022-09-15T23:41:33.636Z,90.80
2022-09-15T23:44:00.452Z,90.80
2022-09-15T23:46:27.277Z,90.80
2022-09-15T23:48:54.127Z,91.00
2022-09-15T23:51:21.312Z,91.00
2022-09-15T23:53:48.184Z,91.10
2022-09-15T23:56:14.801Z,91.70
2022-09-15T23:58:41.835Z,91.30
